Impacts METAR Board
IDs:

KFMN - Farmington/Four Corn, NM, US

Updated at: 0800 UTC 30 Oct 2020
Potential Impact None Slight Moderate High
Time 29/20Z 29/21Z 29/22Z 29/23Z 30/00Z 30/01Z 30/02Z 30/03Z 30/04Z 30/05Z 30/06Z 30/07Z 30/08Z
Temp56 59 60 59 58 52 48 45 40 37 36 33 32
Dewpt30 31 29 30 30 31 31 31 29 29 28 27 27
Altim30.29 30.27 30.26 30.25 30.24 30.26 30.27 30.28 30.29 30.30 30.30 30.30 30.30
VIS10 10 10 10 10 10 10 10 10 10 10 10 10
CIG-- -- -- -- -- -- -- -- -- -- -- -- --
CoverCLRCLRCLRCLRCLRCLRCLRCLRCLRCLRCLRCLRCLR
FltCatVFRVFRVFRVFRVFRVFRVFRVFRVFRVFRVFRVFRVFR
WX--------------------------
WDir1108000280260001030405060
WSpd5 4 4 3 3 3 0 0 6 5 6 7 6
WGst-- -- -- -- -- -- -- -- -- -- -- -- --
Raw hourly METARs
KFMN 291953Z 11005KT 10SM CLR 13/M01 A3029 RMK AO2 SLP249 T01331011
KFMN 292053Z 08004KT 10SM CLR 15/M01 A3027 RMK AO2 SLP240 T01501006 56024
KFMN 292153Z VRB04KT 10SM CLR 16/M02 A3026 RMK AO2 SLP237 T01561017
KFMN 292253Z VRB03KT 10SM CLR 15/M01 A3025 RMK AO2 SLP234 T01501011
KFMN 292353Z 28003KT 10SM CLR 14/M01 A3024 RMK AO2 SLP235 T01441011 10161 20094 56007
KFMN 300053Z 26003KT 10SM CLR 11/M01 A3026 RMK AO2 SLP245 T01111006
KFMN 300153Z 00000KT 10SM CLR 09/M01 A3027 RMK AO2 SLP256 T00891006
KFMN 300253Z 00000KT 10SM CLR 07/M01 A3028 RMK AO2 SLP257 T00721006 51010
KFMN 300353Z AUTO 01006KT 10SM CLR 04/M02 A3029 RMK AO2 SLP261 T00441017
KFMN 300453Z AUTO 03005KT 10SM CLR 03/M02 A3030 RMK AO2 SLP261 T00281017
KFMN 300553Z AUTO 04006KT 10SM CLR 02/M02 A3030 RMK AO2 SLP257 T00221022 10144 20017 51006
KFMN 300653Z AUTO 05007KT 10SM CLR 01/M03 A3030 RMK AO2 SLP256 T00061028 401611022
KFMN 300753Z AUTO 06006KT 10SM CLR 00/M03 A3030 RMK AO2 SLP256 T00001028



Page loaded:  08:02 UTC  |   01:02 AM Pacific  |   02:02 AM Mountain  |   03:02 AM Central  |   04:02 AM Eastern

 

ADVISORIES

FORECASTS

FORECASTS

OBSERVATIONS

USER TOOLS

ABOUT US